sensor_id;sensor_type;location;lat;lon;timestamp;temperature;humidity
68051;DHT22;54839;51.364;7.246;2023-05-10T00:00:00;12.90;99.90
68051;DHT22;54839;51.364;7.246;2023-05-10T00:02:25;12.80;99.90
68051;DHT22;54839;51.364;7.246;2023-05-10T00:04:52;12.80;99.90
68051;DHT22;54839;51.364;7.246;2023-05-10T00:07:17;12.80;99.90
68051;DHT22;54839;51.364;7.246;2023-05-10T00:09:43;12.80;99.90
68051;DHT22;54839;51.364;7.246;2023-05-10T00:12:09;12.80;99.90
68051;DHT22;54839;51.364;7.246;2023-05-10T00:14:35;12.80;99.90
68051;DHT22;54839;51.364;7.246;2023-05-10T00:17:01;12.70;99.90
68051;DHT22;54839;51.364;7.246;2023-05-10T00:19:26;12.70;99.90
68051;DHT22;54839;51.364;7.246;2023-05-10T00:21:52;12.80;99.90
68051;DHT22;54839;51.364;7.246;2023-05-10T00:24:17;12.80;99.90
68051;DHT22;54839;51.364;7.246;2023-05-10T00:26:43;12.70;99.90
68051;DHT22;54839;51.364;7.246;2023-05-10T00:29:08;12.80;99.90
68051;DHT22;54839;51.364;7.246;2023-05-10T00:31:34;12.80;99.90
68051;DHT22;54839;51.364;7.246;2023-05-10T00:33:59;12.70;99.90
68051;DHT22;54839;51.364;7.246;2023-05-10T00:36:25;12.70;99.90
68051;DHT22;54839;51.364;7.246;2023-05-10T00:38:51;12.80;99.90
68051;DHT22;54839;51.364;7.246;2023-05-10T00:41:16;12.80;99.90
68051;DHT22;54839;51.364;7.246;2023-05-10T00:43:42;12.70;99.90
68051;DHT22;54839;51.364;7.246;2023-05-10T00:46:08;12.70;99.90
68051;DHT22;54839;51.364;7.246;2023-05-10T00:48:34;12.70;99.90
68051;DHT22;54839;51.364;7.246;2023-05-10T00:51:01;12.80;99.90
68051;DHT22;54839;51.364;7.246;2023-05-10T00:53:27;12.70;99.90
68051;DHT22;54839;51.364;7.246;2023-05-10T00:55:53;12.80;99.90
68051;DHT22;54839;51.364;7.246;2023-05-10T00:58:18;12.80;99.90
68051;DHT22;54839;51.364;7.246;2023-05-10T01:00:45;12.80;99.90
68051;DHT22;54839;51.364;7.246;2023-05-10T01:03:11;12.80;99.90
68051;DHT22;54839;51.364;7.246;2023-05-10T01:05:37;12.80;99.90
68051;DHT22;54839;51.364;7.246;2023-05-10T01:08:03;12.80;99.90
68051;DHT22;54839;51.364;7.246;2023-05-10T01:10:29;12.90;99.90
68051;DHT22;54839;51.364;7.246;2023-05-10T01:12:55;12.80;99.90
68051;DHT22;54839;51.364;7.246;2023-05-10T01:15:21;12.70;99.90
68051;DHT22;54839;51.364;7.246;2023-05-10T01:17:47;12.80;99.90
68051;DHT22;54839;51.364;7.246;2023-05-10T01:20:14;12.80;99.90
68051;DHT22;54839;51.364;7.246;2023-05-10T01:34:09;12.60;99.90
68051;DHT22;54839;51.364;7.246;2023-05-10T01:36:58;12.60;99.90
68051;DHT22;54839;51.364;7.246;2023-05-10T01:42:26;12.50;99.90
68051;DHT22;54839;51.364;7.246;2023-05-10T01:44:56;12.40;99.90
68051;DHT22;54839;51.364;7.246;2023-05-10T01:47:35;12.40;99.90
68051;DHT22;54839;51.364;7.246;2023-05-10T01:50:05;12.50;99.90
68051;DHT22;54839;51.364;7.246;2023-05-10T01:52:36;12.50;99.90
68051;DHT22;54839;51.364;7.246;2023-05-10T01:55:06;12.50;99.90
68051;DHT22;54839;51.364;7.246;2023-05-10T01:57:36;12.40;99.90
68051;DHT22;54839;51.364;7.246;2023-05-10T02:00:03;12.50;99.90
68051;DHT22;54839;51.364;7.246;2023-05-10T02:02:35;12.50;99.90
68051;DHT22;54839;51.364;7.246;2023-05-10T02:05:03;12.50;99.90
68051;DHT22;54839;51.364;7.246;2023-05-10T02:07:29;12.60;99.90
68051;DHT22;54839;51.364;7.246;2023-05-10T02:09:55;12.50;99.90
68051;DHT22;54839;51.364;7.246;2023-05-10T02:12:23;12.50;99.90
68051;DHT22;54839;51.364;7.246;2023-05-10T02:14:51;12.30;99.90
68051;DHT22;54839;51.364;7.246;2023-05-10T02:17:18;12.30;99.90
68051;DHT22;54839;51.364;7.246;2023-05-10T02:19:44;12.50;99.90
68051;DHT22;54839;51.364;7.246;2023-05-10T02:22:12;12.40;99.90
68051;DHT22;54839;51.364;7.246;2023-05-10T02:24:39;12.40;99.90
68051;DHT22;54839;51.364;7.246;2023-05-10T02:27:06;12.50;99.90
68051;DHT22;54839;51.364;7.246;2023-05-10T02:29:32;12.40;99.90
68051;DHT22;54839;51.364;7.246;2023-05-10T02:31:59;12.30;99.90
68051;DHT22;54839;51.364;7.246;2023-05-10T02:34:26;12.30;99.90
68051;DHT22;54839;51.364;7.246;2023-05-10T02:36:54;12.30;99.90
68051;DHT22;54839;51.364;7.246;2023-05-10T02:39:21;12.30;99.90
68051;DHT22;54839;51.364;7.246;2023-05-10T02:41:48;12.40;99.90
68051;DHT22;54839;51.364;7.246;2023-05-10T02:44:17;12.30;99.90
68051;DHT22;54839;51.364;7.246;2023-05-10T02:46:44;12.20;99.90
68051;DHT22;54839;51.364;7.246;2023-05-10T02:49:10;12.30;99.90
68051;DHT22;54839;51.364;7.246;2023-05-10T02:51:37;12.20;99.90
68051;DHT22;54839;51.364;7.246;2023-05-10T02:54:10;12.30;99.90
68051;DHT22;54839;51.364;7.246;2023-05-10T02:56:40;12.30;99.90
68051;DHT22;54839;51.364;7.246;2023-05-10T02:59:07;12.20;99.90
68051;DHT22;54839;51.364;7.246;2023-05-10T03:01:33;12.20;99.90
68051;DHT22;54839;51.364;7.246;2023-05-10T03:03:59;12.20;99.90
68051;DHT22;54839;51.364;7.246;2023-05-10T03:06:25;12.20;99.90
68051;DHT22;54839;51.364;7.246;2023-05-10T03:08:51;12.20;99.90
68051;DHT22;54839;51.364;7.246;2023-05-10T03:14:16;12.20;99.90
68051;DHT22;54839;51.364;7.246;2023-05-10T03:16:49;12.40;99.90
68051;DHT22;54839;51.364;7.246;2023-05-10T03:19:36;12.30;99.90
68051;DHT22;54839;51.364;7.246;2023-05-10T03:22:10;12.20;99.90
68051;DHT22;54839;51.364;7.246;2023-05-10T03:24:36;12.30;99.90
68051;DHT22;54839;51.364;7.246;2023-05-10T03:27:03;12.30;99.90
68051;DHT22;54839;51.364;7.246;2023-05-10T03:29:30;12.20;99.90
68051;DHT22;54839;51.364;7.246;2023-05-10T03:31:58;12.20;99.90
68051;DHT22;54839;51.364;7.246;2023-05-10T03:34:25;12.30;99.90
68051;DHT22;54839;51.364;7.246;2023-05-10T03:36:50;12.20;99.90
68051;DHT22;54839;51.364;7.246;2023-05-10T03:39:16;12.30;99.90
68051;DHT22;54839;51.364;7.246;2023-05-10T03:41:42;12.30;99.90
68051;DHT22;54839;51.364;7.246;2023-05-10T03:44:07;12.30;99.90
68051;DHT22;54839;51.364;7.246;2023-05-10T03:46:33;12.20;99.90
68051;DHT22;54839;51.364;7.246;2023-05-10T03:48:58;12.30;99.90
68051;DHT22;54839;51.364;7.246;2023-05-10T03:51:24;12.20;99.90
68051;DHT22;54839;51.364;7.246;2023-05-10T03:53:53;12.30;99.90
68051;DHT22;54839;51.364;7.246;2023-05-10T03:56:19;12.30;99.90
68051;DHT22;54839;51.364;7.246;2023-05-10T03:58:46;12.20;99.90
68051;DHT22;54839;51.364;7.246;2023-05-10T04:01:11;12.30;99.90
68051;DHT22;54839;51.364;7.246;2023-05-10T04:03:37;12.20;99.90
68051;DHT22;54839;51.364;7.246;2023-05-10T04:06:03;12.20;99.90
68051;DHT22;54839;51.364;7.246;2023-05-10T04:08:29;12.20;99.90
68051;DHT22;54839;51.364;7.246;2023-05-10T04:10:55;12.20;99.90
68051;DHT22;54839;51.364;7.246;2023-05-10T04:13:29;12.20;99.90
68051;DHT22;54839;51.364;7.246;2023-05-10T04:15:55;12.30;99.90
68051;DHT22;54839;51.364;7.246;2023-05-10T04:18:20;12.30;99.90
68051;DHT22;54839;51.364;7.246;2023-05-10T04:20:46;12.50;99.90
68051;DHT22;54839;51.364;7.246;2023-05-10T04:23:11;12.40;99.90
68051;DHT22;54839;51.364;7.246;2023-05-10T04:25:37;12.50;99.90
68051;DHT22;54839;51.364;7.246;2023-05-10T04:28:02;12.50;99.90
68051;DHT22;54839;51.364;7.246;2023-05-10T04:30:28;12.50;99.90
68051;DHT22;54839;51.364;7.246;2023-05-10T04:32:54;12.40;99.90
68051;DHT22;54839;51.364;7.246;2023-05-10T04:35:20;12.50;99.90
68051;DHT22;54839;51.364;7.246;2023-05-10T04:37:45;12.50;99.90
68051;DHT22;54839;51.364;7.246;2023-05-10T04:40:11;12.40;99.90
68051;DHT22;54839;51.364;7.246;2023-05-10T04:42:37;12.50;99.90
68051;DHT22;54839;51.364;7.246;2023-05-10T04:45:05;12.50;99.90
68051;DHT22;54839;51.364;7.246;2023-05-10T04:47:31;12.40;99.90
68051;DHT22;54839;51.364;7.246;2023-05-10T04:49:57;12.60;99.90
68051;DHT22;54839;51.364;7.246;2023-05-10T04:52:23;12.40;99.90
68051;DHT22;54839;51.364;7.246;2023-05-10T04:54:49;12.50;99.90
68051;DHT22;54839;51.364;7.246;2023-05-10T04:57:15;12.40;99.90
68051;DHT22;54839;51.364;7.246;2023-05-10T04:59:40;12.40;99.90
68051;DHT22;54839;51.364;7.246;2023-05-10T05:02:06;12.40;99.90
68051;DHT22;54839;51.364;7.246;2023-05-10T05:04:31;12.40;99.90
68051;DHT22;54839;51.364;7.246;2023-05-10T05:06:57;12.50;99.90
68051;DHT22;54839;51.364;7.246;2023-05-10T05:09:22;12.40;99.90
68051;DHT22;54839;51.364;7.246;2023-05-10T05:11:48;12.50;99.90
68051;DHT22;54839;51.364;7.246;2023-05-10T05:14:14;12.50;99.90
68051;DHT22;54839;51.364;7.246;2023-05-10T05:16:39;12.60;99.90
68051;DHT22;54839;51.364;7.246;2023-05-10T05:19:05;12.50;99.90
68051;DHT22;54839;51.364;7.246;2023-05-10T05:21:30;12.50;99.90
68051;DHT22;54839;51.364;7.246;2023-05-10T05:23:57;12.50;99.90
68051;DHT22;54839;51.364;7.246;2023-05-10T05:26:23;12.70;99.90
68051;DHT22;54839;51.364;7.246;2023-05-10T05:28:48;12.80;99.90
68051;DHT22;54839;51.364;7.246;2023-05-10T05:31:17;12.80;99.90
68051;DHT22;54839;51.364;7.246;2023-05-10T05:33:43;12.90;99.90
68051;DHT22;54839;51.364;7.246;2023-05-10T05:36:08;13.10;99.90
68051;DHT22;54839;51.364;7.246;2023-05-10T05:38:34;13.10;99.90
68051;DHT22;54839;51.364;7.246;2023-05-10T05:41:00;13.10;99.90
68051;DHT22;54839;51.364;7.246;2023-05-10T05:43:25;13.20;99.90
68051;DHT22;54839;51.364;7.246;2023-05-10T05:45:54;13.10;99.90
68051;DHT22;54839;51.364;7.246;2023-05-10T05:48:20;13.20;99.90
68051;DHT22;54839;51.364;7.246;2023-05-10T05:50:45;13.30;99.90
68051;DHT22;54839;51.364;7.246;2023-05-10T05:53:11;13.30;99.90
68051;DHT22;54839;51.364;7.246;2023-05-10T05:55:37;13.40;99.90
68051;DHT22;54839;51.364;7.246;2023-05-10T05:58:02;13.60;99.90
68051;DHT22;54839;51.364;7.246;2023-05-10T06:00:28;13.70;99.90
68051;DHT22;54839;51.364;7.246;2023-05-10T06:02:54;13.80;99.90
68051;DHT22;54839;51.364;7.246;2023-05-10T06:05:19;13.70;99.90
68051;DHT22;54839;51.364;7.246;2023-05-10T06:07:46;13.60;99.90
68051;DHT22;54839;51.364;7.246;2023-05-10T06:10:11;13.80;99.90
68051;DHT22;54839;51.364;7.246;2023-05-10T06:12:37;13.70;99.90
68051;DHT22;54839;51.364;7.246;2023-05-10T06:15:03;13.60;99.90
68051;DHT22;54839;51.364;7.246;2023-05-10T06:17:29;13.60;99.90
68051;DHT22;54839;51.364;7.246;2023-05-10T06:19:55;13.70;99.90
68051;DHT22;54839;51.364;7.246;2023-05-10T06:22:21;13.90;99.90
68051;DHT22;54839;51.364;7.246;2023-05-10T06:24:48;13.80;99.90
68051;DHT22;54839;51.364;7.246;2023-05-10T06:27:13;13.60;99.90
68051;DHT22;54839;51.364;7.246;2023-05-10T06:29:39;13.70;99.90
68051;DHT22;54839;51.364;7.246;2023-05-10T06:32:05;14.00;99.90
68051;DHT22;54839;51.364;7.246;2023-05-10T06:34:30;13.90;99.90
68051;DHT22;54839;51.364;7.246;2023-05-10T06:36:56;14.00;99.90
68051;DHT22;54839;51.364;7.246;2023-05-10T06:39:22;14.00;99.90
68051;DHT22;54839;51.364;7.246;2023-05-10T06:41:47;14.10;99.90
68051;DHT22;54839;51.364;7.246;2023-05-10T06:44:13;14.20;99.90
68051;DHT22;54839;51.364;7.246;2023-05-10T06:46:39;14.30;99.90
68051;DHT22;54839;51.364;7.246;2023-05-10T06:49:04;14.40;99.90
68051;DHT22;54839;51.364;7.246;2023-05-10T06:51:30;14.90;99.90
68051;DHT22;54839;51.364;7.246;2023-05-10T06:53:56;15.20;99.90
68051;DHT22;54839;51.364;7.246;2023-05-10T06:56:21;15.20;99.90
68051;DHT22;54839;51.364;7.246;2023-05-10T06:58:50;15.00;99.90
68051;DHT22;54839;51.364;7.246;2023-05-10T07:01:15;15.00;99.90
68051;DHT22;54839;51.364;7.246;2023-05-10T07:03:41;14.90;99.90
68051;DHT22;54839;51.364;7.246;2023-05-10T07:06:06;15.10;99.90
68051;DHT22;54839;51.364;7.246;2023-05-10T07:08:33;15.00;99.90
68051;DHT22;54839;51.364;7.246;2023-05-10T07:11:03;15.00;99.90
68051;DHT22;54839;51.364;7.246;2023-05-10T07:13:32;14.70;99.90
68051;DHT22;54839;51.364;7.246;2023-05-10T07:15:58;14.70;99.90
68051;DHT22;54839;51.364;7.246;2023-05-10T07:18:25;14.50;99.90
68051;DHT22;54839;51.364;7.246;2023-05-10T07:20:50;14.40;99.90
68051;DHT22;54839;51.364;7.246;2023-05-10T07:23:16;14.40;99.90
68051;DHT22;54839;51.364;7.246;2023-05-10T07:25:45;14.40;99.90
68051;DHT22;54839;51.364;7.246;2023-05-10T07:28:12;14.60;99.90
68051;DHT22;54839;51.364;7.246;2023-05-10T07:30:37;14.60;99.90
68051;DHT22;54839;51.364;7.246;2023-05-10T07:33:03;14.60;99.90
68051;DHT22;54839;51.364;7.246;2023-05-10T07:35:28;14.50;99.90
68051;DHT22;54839;51.364;7.246;2023-05-10T07:37:54;14.20;99.90
68051;DHT22;54839;51.364;7.246;2023-05-10T07:40:19;14.00;99.90
68051;DHT22;54839;51.364;7.246;2023-05-10T07:42:45;13.90;99.90
68051;DHT22;54839;51.364;7.246;2023-05-10T07:45:10;13.90;99.90
68051;DHT22;54839;51.364;7.246;2023-05-10T07:47:36;13.80;99.90
68051;DHT22;54839;51.364;7.246;2023-05-10T07:50:01;14.00;99.90
68051;DHT22;54839;51.364;7.246;2023-05-10T07:52:27;14.30;99.90
68051;DHT22;54839;51.364;7.246;2023-05-10T07:54:52;14.60;99.90
68051;DHT22;54839;51.364;7.246;2023-05-10T07:57:19;14.90;99.90
68051;DHT22;54839;51.364;7.246;2023-05-10T07:59:44;14.80;99.90
68051;DHT22;54839;51.364;7.246;2023-05-10T08:02:10;14.50;99.90
68051;DHT22;54839;51.364;7.246;2023-05-10T08:04:36;14.50;99.90
68051;DHT22;54839;51.364;7.246;2023-05-10T08:07:01;14.40;99.90
68051;DHT22;54839;51.364;7.246;2023-05-10T08:09:27;14.10;99.90
68051;DHT22;54839;51.364;7.246;2023-05-10T08:11:52;14.10;99.90
68051;DHT22;54839;51.364;7.246;2023-05-10T08:14:18;14.00;99.90
68051;DHT22;54839;51.364;7.246;2023-05-10T08:16:44;13.90;99.90
68051;DHT22;54839;51.364;7.246;2023-05-10T08:19:09;13.80;99.90
68051;DHT22;54839;51.364;7.246;2023-05-10T08:21:35;14.20;99.90
68051;DHT22;54839;51.364;7.246;2023-05-10T08:24:01;14.50;99.90
68051;DHT22;54839;51.364;7.246;2023-05-10T08:26:27;15.10;99.90
68051;DHT22;54839;51.364;7.246;2023-05-10T08:28:52;15.30;99.90
68051;DHT22;54839;51.364;7.246;2023-05-10T08:31:18;15.50;99.90
68051;DHT22;54839;51.364;7.246;2023-05-10T08:33:43;15.90;99.90
68051;DHT22;54839;51.364;7.246;2023-05-10T08:36:09;16.40;99.90
68051;DHT22;54839;51.364;7.246;2023-05-10T08:38:35;16.90;99.90
68051;DHT22;54839;51.364;7.246;2023-05-10T08:41:02;16.60;99.90
68051;DHT22;54839;51.364;7.246;2023-05-10T08:43:28;16.50;99.90
68051;DHT22;54839;51.364;7.246;2023-05-10T08:45:55;16.40;99.90
68051;DHT22;54839;51.364;7.246;2023-05-10T08:48:24;16.80;99.90
68051;DHT22;54839;51.364;7.246;2023-05-10T08:50:54;16.70;99.90
68051;DHT22;54839;51.364;7.246;2023-05-10T08:53:24;16.40;99.90
68051;DHT22;54839;51.364;7.246;2023-05-10T08:55:51;16.40;99.90
68051;DHT22;54839;51.364;7.246;2023-05-10T08:58:17;16.70;99.90
68051;DHT22;54839;51.364;7.246;2023-05-10T09:00:45;16.60;99.90
68051;DHT22;54839;51.364;7.246;2023-05-10T09:03:11;16.30;99.90
68051;DHT22;54839;51.364;7.246;2023-05-10T09:05:37;16.30;99.90
68051;DHT22;54839;51.364;7.246;2023-05-10T09:08:02;16.20;99.90
68051;DHT22;54839;51.364;7.246;2023-05-10T09:10:29;16.30;99.90
68051;DHT22;54839;51.364;7.246;2023-05-10T09:12:56;16.40;99.90
68051;DHT22;54839;51.364;7.246;2023-05-10T09:15:23;16.40;99.90
68051;DHT22;54839;51.364;7.246;2023-05-10T09:17:49;16.20;99.90
68051;DHT22;54839;51.364;7.246;2023-05-10T09:20:15;16.70;99.90
68051;DHT22;54839;51.364;7.246;2023-05-10T09:22:42;16.90;99.90
68051;DHT22;54839;51.364;7.246;2023-05-10T09:25:15;16.80;99.90
68051;DHT22;54839;51.364;7.246;2023-05-10T09:27:45;17.00;99.90
68051;DHT22;54839;51.364;7.246;2023-05-10T09:30:26;16.90;99.90
68051;DHT22;54839;51.364;7.246;2023-05-10T09:32:52;16.80;99.90
68051;DHT22;54839;51.364;7.246;2023-05-10T09:35:20;16.80;99.90
68051;DHT22;54839;51.364;7.246;2023-05-10T09:37:48;16.80;99.90
68051;DHT22;54839;51.364;7.246;2023-05-10T09:40:17;16.90;99.90
68051;DHT22;54839;51.364;7.246;2023-05-10T09:42:55;17.00;99.90
68051;DHT22;54839;51.364;7.246;2023-05-10T09:45:22;17.00;99.90
68051;DHT22;54839;51.364;7.246;2023-05-10T09:47:48;16.90;99.90
68051;DHT22;54839;51.364;7.246;2023-05-10T09:50:14;17.50;99.90
68051;DHT22;54839;51.364;7.246;2023-05-10T09:52:54;17.50;99.90
68051;DHT22;54839;51.364;7.246;2023-05-10T09:55:22;17.40;99.90
68051;DHT22;54839;51.364;7.246;2023-05-10T09:57:49;17.70;99.90
68051;DHT22;54839;51.364;7.246;2023-05-10T10:00:19;17.80;99.90
68051;DHT22;54839;51.364;7.246;2023-05-10T10:02:54;17.40;99.90
68051;DHT22;54839;51.364;7.246;2023-05-10T10:05:20;17.50;99.90
68051;DHT22;54839;51.364;7.246;2023-05-10T10:07:45;17.20;99.90
68051;DHT22;54839;51.364;7.246;2023-05-10T10:10:12;17.30;99.90
68051;DHT22;54839;51.364;7.246;2023-05-10T10:12:39;17.20;99.90
68051;DHT22;54839;51.364;7.246;2023-05-10T10:15:07;17.10;99.90
68051;DHT22;54839;51.364;7.246;2023-05-10T10:17:35;17.00;99.90
68051;DHT22;54839;51.364;7.246;2023-05-10T10:20:02;17.00;99.90
68051;DHT22;54839;51.364;7.246;2023-05-10T10:22:28;17.20;99.90
68051;DHT22;54839;51.364;7.246;2023-05-10T10:24:54;16.90;99.90
68051;DHT22;54839;51.364;7.246;2023-05-10T10:27:28;16.20;99.90
68051;DHT22;54839;51.364;7.246;2023-05-10T10:30:02;15.50;99.90
68051;DHT22;54839;51.364;7.246;2023-05-10T10:35:13;15.90;99.90
68051;DHT22;54839;51.364;7.246;2023-05-10T10:37:44;16.40;99.90
68051;DHT22;54839;51.364;7.246;2023-05-10T10:40:30;16.70;99.90
68051;DHT22;54839;51.364;7.246;2023-05-10T10:42:57;17.30;99.90
68051;DHT22;54839;51.364;7.246;2023-05-10T10:45:24;16.90;99.90
68051;DHT22;54839;51.364;7.246;2023-05-10T10:48:21;16.70;99.90
68051;DHT22;54839;51.364;7.246;2023-05-10T10:50:47;17.20;99.90
68051;DHT22;54839;51.364;7.246;2023-05-10T10:53:21;16.80;99.90
68051;DHT22;54839;51.364;7.246;2023-05-10T10:55:47;16.80;99.90
68051;DHT22;54839;51.364;7.246;2023-05-10T10:58:29;16.40;99.90
68051;DHT22;54839;51.364;7.246;2023-05-10T11:01:16;16.80;99.90
68051;DHT22;54839;51.364;7.246;2023-05-10T11:04:16;16.90;99.90
68051;DHT22;54839;51.364;7.246;2023-05-10T11:06:42;17.20;99.90
68051;DHT22;54839;51.364;7.246;2023-05-10T11:09:09;17.60;99.90
68051;DHT22;54839;51.364;7.246;2023-05-10T11:11:36;17.60;99.90
68051;DHT22;54839;51.364;7.246;2023-05-10T11:14:06;17.40;99.90
68051;DHT22;54839;51.364;7.246;2023-05-10T11:16:43;17.10;99.90
68051;DHT22;54839;51.364;7.246;2023-05-10T11:19:12;16.60;99.90
68051;DHT22;54839;51.364;7.246;2023-05-10T11:21:51;16.50;99.90
68051;DHT22;54839;51.364;7.246;2023-05-10T11:24:35;16.40;99.90
68051;DHT22;54839;51.364;7.246;2023-05-10T11:27:01;16.70;99.90
68051;DHT22;54839;51.364;7.246;2023-05-10T11:29:27;16.80;99.90
68051;DHT22;54839;51.364;7.246;2023-05-10T11:31:52;16.80;99.90
68051;DHT22;54839;51.364;7.246;2023-05-10T11:34:29;16.80;99.90
68051;DHT22;54839;51.364;7.246;2023-05-10T11:36:56;16.60;99.90
68051;DHT22;54839;51.364;7.246;2023-05-10T11:39:26;16.60;99.90
68051;DHT22;54839;51.364;7.246;2023-05-10T11:41:52;16.70;99.90
68051;DHT22;54839;51.364;7.246;2023-05-10T11:44:18;16.70;99.90
68051;DHT22;54839;51.364;7.246;2023-05-10T11:46:44;16.70;99.90
68051;DHT22;54839;51.364;7.246;2023-05-10T11:49:10;17.00;99.90
68051;DHT22;54839;51.364;7.246;2023-05-10T11:51:36;17.60;99.90
68051;DHT22;54839;51.364;7.246;2023-05-10T11:54:08;17.60;99.90
68051;DHT22;54839;51.364;7.246;2023-05-10T11:56:34;17.40;99.90
68051;DHT22;54839;51.364;7.246;2023-05-10T11:59:00;17.10;99.90
68051;DHT22;54839;51.364;7.246;2023-05-10T12:01:28;17.10;99.90
68051;DHT22;54839;51.364;7.246;2023-05-10T12:03:55;17.30;99.90
68051;DHT22;54839;51.364;7.246;2023-05-10T12:06:26;17.50;99.90
68051;DHT22;54839;51.364;7.246;2023-05-10T12:08:52;17.00;99.90
68051;DHT22;54839;51.364;7.246;2023-05-10T12:11:19;17.30;99.90
68051;DHT22;54839;51.364;7.246;2023-05-10T12:13:46;18.10;99.90
68051;DHT22;54839;51.364;7.246;2023-05-10T12:16:19;18.40;99.90
68051;DHT22;54839;51.364;7.246;2023-05-10T12:18:49;18.70;99.90
68051;DHT22;54839;51.364;7.246;2023-05-10T12:21:15;19.00;99.90
68051;DHT22;54839;51.364;7.246;2023-05-10T12:23:41;18.30;99.90
68051;DHT22;54839;51.364;7.246;2023-05-10T12:26:09;18.70;99.90
68051;DHT22;54839;51.364;7.246;2023-05-10T12:28:36;18.80;99.90
68051;DHT22;54839;51.364;7.246;2023-05-10T12:31:02;18.50;99.90
68051;DHT22;54839;51.364;7.246;2023-05-10T12:33:38;18.00;99.90
68051;DHT22;54839;51.364;7.246;2023-05-10T12:36:04;18.00;99.90
68051;DHT22;54839;51.364;7.246;2023-05-10T12:38:35;18.20;99.90
68051;DHT22;54839;51.364;7.246;2023-05-10T12:41:04;18.30;99.90
68051;DHT22;54839;51.364;7.246;2023-05-10T12:43:31;18.70;99.90
68051;DHT22;54839;51.364;7.246;2023-05-10T12:45:57;19.70;99.90
68051;DHT22;54839;51.364;7.246;2023-05-10T12:48:23;19.60;99.90
68051;DHT22;54839;51.364;7.246;2023-05-10T12:50:48;18.70;99.90
68051;DHT22;54839;51.364;7.246;2023-05-10T12:53:14;18.60;99.90
68051;DHT22;54839;51.364;7.246;2023-05-10T12:55:41;18.70;99.90
68051;DHT22;54839;51.364;7.246;2023-05-10T12:58:07;18.60;99.90
68051;DHT22;54839;51.364;7.246;2023-05-10T13:00:32;18.40;99.90
68051;DHT22;54839;51.364;7.246;2023-05-10T13:02:58;18.20;99.90
68051;DHT22;54839;51.364;7.246;2023-05-10T13:05:24;17.50;99.90
68051;DHT22;54839;51.364;7.246;2023-05-10T13:07:49;17.20;99.90
68051;DHT22;54839;51.364;7.246;2023-05-10T13:10:15;17.20;99.90
68051;DHT22;54839;51.364;7.246;2023-05-10T13:12:41;17.10;99.90
68051;DHT22;54839;51.364;7.246;2023-05-10T13:15:07;17.50;99.90
68051;DHT22;54839;51.364;7.246;2023-05-10T13:17:33;18.30;99.90
68051;DHT22;54839;51.364;7.246;2023-05-10T13:19:58;19.10;99.90
68051;DHT22;54839;51.364;7.246;2023-05-10T13:22:24;22.00;99.90
68051;DHT22;54839;51.364;7.246;2023-05-10T13:24:49;24.70;99.90
68051;DHT22;54839;51.364;7.246;2023-05-10T13:27:15;23.20;99.90
68051;DHT22;54839;51.364;7.246;2023-05-10T13:29:40;23.80;99.90
68051;DHT22;54839;51.364;7.246;2023-05-10T13:32:06;26.80;99.90
68051;DHT22;54839;51.364;7.246;2023-05-10T13:34:31;26.50;99.90
68051;DHT22;54839;51.364;7.246;2023-05-10T13:36:57;26.10;99.90
68051;DHT22;54839;51.364;7.246;2023-05-10T13:39:23;26.80;99.90
68051;DHT22;54839;51.364;7.246;2023-05-10T13:41:48;29.10;99.90
68051;DHT22;54839;51.364;7.246;2023-05-10T13:44:14;28.30;99.30
68051;DHT22;54839;51.364;7.246;2023-05-10T13:46:43;28.00;99.40
68051;DHT22;54839;51.364;7.246;2023-05-10T13:49:09;27.30;99.90
68051;DHT22;54839;51.364;7.246;2023-05-10T13:51:34;29.50;97.00
68051;DHT22;54839;51.364;7.246;2023-05-10T13:54:01;29.60;95.20
68051;DHT22;54839;51.364;7.246;2023-05-10T13:56:27;27.70;95.20
68051;DHT22;54839;51.364;7.246;2023-05-10T13:58:52;25.80;96.30
68051;DHT22;54839;51.364;7.246;2023-05-10T14:01:18;26.30;97.40
68051;DHT22;54839;51.364;7.246;2023-05-10T14:03:43;27.50;95.90
68051;DHT22;54839;51.364;7.246;2023-05-10T14:06:09;27.60;95.20
68051;DHT22;54839;51.364;7.246;2023-05-10T14:08:35;26.30;95.80
68051;DHT22;54839;51.364;7.246;2023-05-10T14:11:01;27.00;96.50
68051;DHT22;54839;51.364;7.246;2023-05-10T14:13:27;27.30;95.30
68051;DHT22;54839;51.364;7.246;2023-05-10T14:15:53;30.90;93.10
68051;DHT22;54839;51.364;7.246;2023-05-10T14:18:19;29.30;87.30
68051;DHT22;54839;51.364;7.246;2023-05-10T14:20:44;28.90;86.60
68051;DHT22;54839;51.364;7.246;2023-05-10T14:23:10;29.50;88.70
68051;DHT22;54839;51.364;7.246;2023-05-10T14:25:36;25.50;90.80
68051;DHT22;54839;51.364;7.246;2023-05-10T14:28:01;23.40;95.60
68051;DHT22;54839;51.364;7.246;2023-05-10T14:30:27;21.60;99.90
68051;DHT22;54839;51.364;7.246;2023-05-10T14:32:52;24.20;97.40
68051;DHT22;54839;51.364;7.246;2023-05-10T14:35:19;27.00;94.30
68051;DHT22;54839;51.364;7.246;2023-05-10T14:37:45;28.10;93.50
68051;DHT22;54839;51.364;7.246;2023-05-10T14:40:11;30.70;90.80
68051;DHT22;54839;51.364;7.246;2023-05-10T14:42:37;28.70;84.40
68051;DHT22;54839;51.364;7.246;2023-05-10T14:45:04;28.20;87.00
68051;DHT22;54839;51.364;7.246;2023-05-10T14:47:29;27.00;90.40
68051;DHT22;54839;51.364;7.246;2023-05-10T14:49:55;25.00;92.30
68051;DHT22;54839;51.364;7.246;2023-05-10T14:52:21;23.70;93.70
68051;DHT22;54839;51.364;7.246;2023-05-10T14:54:46;23.30;95.30
68051;DHT22;54839;51.364;7.246;2023-05-10T14:57:12;23.30;97.10
68051;DHT22;54839;51.364;7.246;2023-05-10T14:59:38;21.50;96.90
68051;DHT22;54839;51.364;7.246;2023-05-10T15:02:03;22.50;99.90
68051;DHT22;54839;51.364;7.246;2023-05-10T15:04:29;22.30;99.40
68051;DHT22;54839;51.364;7.246;2023-05-10T15:06:55;23.20;99.10
68051;DHT22;54839;51.364;7.246;2023-05-10T15:09:24;24.80;96.60
68051;DHT22;54839;51.364;7.246;2023-05-10T15:11:50;26.90;95.10
68051;DHT22;54839;51.364;7.246;2023-05-10T15:14:16;29.10;93.80
68051;DHT22;54839;51.364;7.246;2023-05-10T15:16:41;30.80;91.40
68051;DHT22;54839;51.364;7.246;2023-05-10T15:19:07;28.40;85.70
68051;DHT22;54839;51.364;7.246;2023-05-10T15:21:32;27.30;87.90
68051;DHT22;54839;51.364;7.246;2023-05-10T15:24:07;27.90;90.40
68051;DHT22;54839;51.364;7.246;2023-05-10T15:26:33;25.30;93.20
68051;DHT22;54839;51.364;7.246;2023-05-10T15:28:58;23.60;96.00
68051;DHT22;54839;51.364;7.246;2023-05-10T15:31:24;23.80;97.20
68051;DHT22;54839;51.364;7.246;2023-05-10T15:33:49;26.90;95.30
68051;DHT22;54839;51.364;7.246;2023-05-10T15:36:15;27.70;93.00
68051;DHT22;54839;51.364;7.246;2023-05-10T15:38:43;25.50;94.60
68051;DHT22;54839;51.364;7.246;2023-05-10T15:41:08;22.80;97.70
68051;DHT22;54839;51.364;7.246;2023-05-10T15:43:34;20.60;99.90
68051;DHT22;54839;51.364;7.246;2023-05-10T15:45:59;20.10;99.90
68051;DHT22;54839;51.364;7.246;2023-05-10T15:48:25;19.90;99.90